Time;durP1;ratioP1;P1;durP2;ratioP2;P2;SDS_P1;SDS_P2;PMS_P1;PMS_P2;Temp;Humidity;BMP_temperature;BMP_pressure;BME280_temperature;BME280_humidity;BME280_pressure;Samples;Min_cycle;Max_cycle;Signal;HPM_P1;HPM_P2
2023/08/24 00:01:00;;;;;;;4.13;1.80;;;17.30;99.90;;;;;;5024726;28;20778;-92
2023/08/24 00:06:27;;;;;;;6.70;1.77;;;17.60;99.90;;;;;;5034046;28;20280;-95
2023/08/24 00:09:01;;;;;;;7.97;1.80;;;17.70;99.90;;;;;;5026941;28;20674;-93
2023/08/24 00:11:33;;;;;;;3.65;1.45;;;17.70;99.90;;;;;;5032218;28;20205;-95
2023/08/24 00:14:09;;;;;;;4.63;1.65;;;17.80;99.90;;;;;;5026976;28;20692;-95
2023/08/24 00:16:40;;;;;;;5.82;1.80;;;17.90;99.90;;;;;;5032600;28;20197;-95
2023/08/24 00:19:16;;;;;;;5.00;1.88;;;18.00;99.90;;;;;;5028694;28;20201;-96
2023/08/24 00:21:47;;;;;;;6.88;2.03;;;18.20;99.90;;;;;;5010074;28;20285;-96
2023/08/24 00:24:24;;;;;;;4.28;1.50;;;18.30;99.90;;;;;;5021430;28;20210;-95
2023/08/24 00:26:56;;;;;;;8.23;1.70;;;18.30;99.90;;;;;;5027348;28;20220;-95
2023/08/24 00:29:29;;;;;;;5.75;1.63;;;18.50;99.90;;;;;;5025089;28;20256;-96
2023/08/24 00:32:06;;;;;;;6.78;1.63;;;18.60;99.90;;;;;;5025555;28;20190;-96
2023/08/24 00:34:39;;;;;;;5.57;1.65;;;18.70;99.90;;;;;;5025396;28;20198;-94
2023/08/24 00:37:14;;;;;;;5.95;1.70;;;18.90;99.90;;;;;;5037179;28;20225;-94
2023/08/24 00:39:49;;;;;;;4.45;1.75;;;19.10;99.90;;;;;;5024392;28;20269;-95
2023/08/24 00:42:20;;;;;;;5.85;1.50;;;19.30;99.90;;;;;;5023469;28;20223;-94
2023/08/24 00:44:54;;;;;;;5.93;1.95;;;19.30;99.90;;;;;;5026803;28;20213;-95
2023/08/24 00:47:30;;;;;;;5.10;1.50;;;19.20;99.90;;;;;;5040597;28;20197;-94
2023/08/24 00:50:03;;;;;;;4.85;1.40;;;19.10;99.90;;;;;;5040289;28;20236;-95
2023/08/24 00:52:36;;;;;;;4.32;1.40;;;19.00;99.90;;;;;;5047541;28;20302;-95
2023/08/24 00:55:10;;;;;;;3.88;1.45;;;19.10;99.90;;;;;;5032156;28;20270;-94
2023/08/24 00:57:43;;;;;;;6.72;1.50;;;19.30;99.90;;;;;;5025373;28;20324;-94
2023/08/24 01:00:17;;;;;;;5.07;1.60;;;19.20;99.90;;;;;;5023754;28;20234;-94
2023/08/24 01:02:48;;;;;;;7.63;1.55;;;19.20;99.90;;;;;;5032563;28;20229;-94
2023/08/24 01:05:20;;;;;;;6.10;1.63;;;19.30;99.90;;;;;;5023125;28;20240;-95
2023/08/24 01:07:55;;;;;;;4.70;1.45;;;19.30;99.90;;;;;;5040402;28;20220;-93
2023/08/24 01:10:37;;;;;;;4.13;1.23;;;19.40;99.90;;;;;;5043554;28;20256;-94
2023/08/24 01:13:13;;;;;;;7.75;1.50;;;19.50;99.90;;;;;;5029858;28;20202;-95
2023/08/24 01:15:51;;;;;;;6.18;1.27;;;19.60;99.90;;;;;;5038982;28;20210;-93
2023/08/24 01:18:26;;;;;;;4.55;1.40;;;19.70;99.90;;;;;;5040459;28;20201;-94
2023/08/24 01:20:58;;;;;;;7.82;1.77;;;19.70;99.90;;;;;;5044420;28;21121;-93
2023/08/24 01:23:39;;;;;;;6.30;1.60;;;19.80;99.90;;;;;;5028311;28;20209;-93
2023/08/24 01:26:23;;;;;;;5.15;1.50;;;19.80;99.90;;;;;;5023177;28;20213;-94
2023/08/24 01:28:55;;;;;;;2.92;1.25;;;19.80;99.90;;;;;;5023799;28;20221;-93
2023/08/24 01:31:27;;;;;;;3.75;1.25;;;19.70;99.90;;;;;;5027260;28;20212;-92
2023/08/24 01:33:59;;;;;;;6.53;1.30;;;19.90;99.90;;;;;;5024826;28;20280;-92
2023/08/24 01:36:31;;;;;;;3.15;1.25;;;19.90;99.90;;;;;;5023459;28;20237;-95
2023/08/24 01:39:10;;;;;;;3.30;1.45;;;20.10;99.90;;;;;;5032859;28;20264;-94
2023/08/24 01:41:54;;;;;;;5.38;1.20;;;20.30;99.90;;;;;;5041805;28;20248;-93
2023/08/24 01:44:30;;;;;;;3.83;1.30;;;20.50;99.90;;;;;;5042064;28;20228;-94
2023/08/24 01:47:05;;;;;;;2.63;1.30;;;20.70;99.90;;;;;;5034608;28;20253;-93
2023/08/24 01:49:36;;;;;;;5.45;1.13;;;20.80;99.90;;;;;;5027321;28;20255;-94
2023/08/24 01:52:10;;;;;;;3.80;1.30;;;20.80;99.90;;;;;;5033483;28;20275;-94
2023/08/24 01:54:43;;;;;;;3.42;1.10;;;20.70;99.90;;;;;;5030299;28;20662;-92
2023/08/24 01:57:17;;;;;;;6.18;1.15;;;20.60;99.90;;;;;;5036531;28;20638;-95
2023/08/24 01:59:50;;;;;;;3.03;1.00;;;20.60;99.90;;;;;;5041443;28;20228;-94
2023/08/24 02:02:21;;;;;;;4.60;1.08;;;20.60;99.90;;;;;;5036733;28;20232;-94
2023/08/24 02:04:52;;;;;;;3.30;1.17;;;20.60;99.90;;;;;;5031191;28;20205;-95
2023/08/24 02:07:24;;;;;;;5.55;1.40;;;20.70;99.90;;;;;;5031956;28;20210;-95
2023/08/24 02:09:55;;;;;;;5.45;1.00;;;20.70;99.90;;;;;;5033621;28;20198;-94
2023/08/24 02:12:31;;;;;;;3.55;0.93;;;20.80;99.90;;;;;;5035562;28;20254;-93
2023/08/24 02:15:02;;;;;;;4.18;1.10;;;20.90;99.90;;;;;;5037591;28;20291;-95
2023/08/24 02:17:35;;;;;;;2.63;1.02;;;20.90;99.90;;;;;;5026902;28;20201;-94
2023/08/24 02:20:08;;;;;;;4.75;1.15;;;20.90;99.90;;;;;;5028572;28;20205;-93
2023/08/24 02:22:39;;;;;;;3.67;1.10;;;20.80;99.90;;;;;;5051426;28;21131;-93
2023/08/24 02:25:12;;;;;;;3.55;1.10;;;21.00;99.90;;;;;;5040087;28;20217;-94
2023/08/24 02:27:48;;;;;;;3.83;1.15;;;21.00;99.90;;;;;;5028299;28;20524;-95
2023/08/24 02:30:19;;;;;;;5.05;1.05;;;21.20;99.90;;;;;;5020006;28;20201;-94
2023/08/24 02:32:58;;;;;;;3.28;0.95;;;21.40;99.90;;;;;;5025966;28;20343;-95
2023/08/24 02:35:29;;;;;;;3.22;0.90;;;21.60;99.90;;;;;;5031526;28;20201;-92
2023/08/24 02:38:00;;;;;;;3.35;1.00;;;21.60;99.90;;;;;;5029678;28;20194;-93
2023/08/24 02:40:32;;;;;;;4.15;1.30;;;21.70;99.90;;;;;;5027047;28;20216;-93
2023/08/24 02:43:10;;;;;;;5.53;1.20;;;21.70;99.90;;;;;;5023728;28;20228;-94
2023/08/24 02:45:42;;;;;;;5.22;1.15;;;21.70;99.90;;;;;;5022246;28;20205;-93
2023/08/24 02:48:13;;;;;;;5.00;1.05;;;21.60;99.90;;;;;;5028820;28;20209;-92
2023/08/24 02:50:49;;;;;;;5.65;1.30;;;21.60;99.90;;;;;;5019236;28;20217;-92
2023/08/24 02:53:20;;;;;;;7.60;1.33;;;21.60;99.90;;;;;;5030091;28;20193;-92
2023/08/24 02:55:51;;;;;;;3.42;1.00;;;21.40;99.90;;;;;;5025516;28;20208;-93
2023/08/24 02:58:27;;;;;;;4.15;1.15;;;21.30;99.90;;;;;;5026216;28;20193;-92
2023/08/24 03:00:59;;;;;;;3.00;1.10;;;21.30;99.90;;;;;;5015481;28;20244;-93
2023/08/24 03:03:34;;;;;;;3.45;1.02;;;21.10;99.90;;;;;;5022583;28;20724;-93
2023/08/24 03:06:08;;;;;;;4.13;1.05;;;20.80;99.90;;;;;;5028237;28;20697;-92
2023/08/24 03:08:39;;;;;;;3.97;1.23;;;20.70;99.90;;;;;;5033234;28;20553;-92
2023/08/24 03:11:10;;;;;;;5.20;1.00;;;20.60;99.90;;;;;;5043813;28;20197;-91
2023/08/24 03:13:43;;;;;;;2.60;1.00;;;20.50;99.90;;;;;;5031493;28;20197;-93
2023/08/24 03:16:14;;;;;;;4.82;1.17;;;20.50;99.90;;;;;;5031422;28;20212;-92
2023/08/24 03:18:47;;;;;;;2.83;1.05;;;20.50;99.90;;;;;;5047414;28;20262;-92
2023/08/24 03:21:17;;;;;;;4.88;1.27;;;20.50;99.90;;;;;;5042482;28;20193;-93
2023/08/24 03:23:49;;;;;;;6.75;1.30;;;20.60;99.90;;;;;;5038727;28;20538;-96
2023/08/24 03:26:23;;;;;;;3.45;0.90;;;20.70;99.90;;;;;;5041431;28;20245;-95
2023/08/24 03:28:57;;;;;;;3.28;1.08;;;20.90;99.90;;;;;;5034863;28;20444;-92
2023/08/24 03:34:15;;;;;;;3.45;1.08;;;20.90;99.90;;;;;;5050496;28;20189;-93
2023/08/24 03:36:47;;;;;;;4.80;1.50;;;20.80;99.90;;;;;;5043778;28;21890;-92
2023/08/24 03:39:18;;;;;;;2.50;1.00;;;20.70;99.90;;;;;;5035551;28;20197;-92
2023/08/24 03:41:50;;;;;;;3.03;1.08;;;20.50;99.90;;;;;;5036125;28;20677;-93
2023/08/24 03:44:24;;;;;;;3.92;1.13;;;20.50;99.90;;;;;;5018532;28;20205;-93
2023/08/24 03:46:55;;;;;;;7.53;1.67;;;20.40;99.90;;;;;;5020079;28;20224;-92
2023/08/24 03:49:26;;;;;;;7.50;1.83;;;20.30;99.90;;;;;;5039314;28;20205;-90
2023/08/24 03:51:57;;;;;;;4.38;1.25;;;20.30;99.90;;;;;;5046037;28;20220;-90
2023/08/24 03:54:28;;;;;;;8.95;1.38;;;20.20;99.90;;;;;;5036041;28;20215;-89
2023/08/24 03:57:00;;;;;;;2.00;0.85;;;20.30;99.90;;;;;;5015363;28;20201;-90
2023/08/24 03:59:35;;;;;;;3.70;0.60;;;20.30;99.90;;;;;;5032012;28;20259;-92
2023/08/24 04:02:07;;;;;;;4.50;1.08;;;20.20;99.90;;;;;;5021530;28;20577;-91
2023/08/24 04:04:38;;;;;;;3.50;1.00;;;20.10;99.90;;;;;;5018638;28;20210;-92
2023/08/24 04:07:08;;;;;;;1.42;0.68;;;20.10;99.90;;;;;;5024707;28;20212;-91
2023/08/24 04:09:42;;;;;;;2.13;0.90;;;20.00;99.90;;;;;;5030131;28;20201;-91
2023/08/24 04:12:15;;;;;;;4.07;1.00;;;20.00;99.90;;;;;;5011955;28;20650;-91
2023/08/24 04:14:52;;;;;;;1.67;0.70;;;20.00;99.90;;;;;;5023360;28;20205;-91
2023/08/24 04:17:23;;;;;;;3.65;0.70;;;20.00;99.90;;;;;;5035342;28;20228;-91
2023/08/24 04:20:00;;;;;;;3.15;0.90;;;19.90;99.90;;;;;;5041260;28;20453;-92
2023/08/24 04:22:31;;;;;;;1.98;0.80;;;19.70;99.90;;;;;;5017517;28;20224;-91
2023/08/24 04:25:02;;;;;;;1.42;0.60;;;19.80;99.90;;;;;;5033255;28;20222;-92
2023/08/24 04:27:33;;;;;;;5.10;0.93;;;19.70;99.90;;;;;;5019477;28;20209;-91
2023/08/24 04:30:11;;;;;;;1.95;0.70;;;19.70;99.90;;;;;;5033152;28;20255;-91
2023/08/24 04:32:43;;;;;;;3.28;0.95;;;19.70;99.90;;;;;;5035419;28;20201;-90
2023/08/24 04:35:14;;;;;;;3.45;0.80;;;19.80;99.90;;;;;;5033815;28;20212;-91
2023/08/24 04:37:45;;;;;;;2.47;0.73;;;19.90;99.90;;;;;;5043247;28;20244;-92
2023/08/24 04:40:17;;;;;;;3.83;0.90;;;19.80;99.90;;;;;;5032672;28;20216;-91
2023/08/24 04:42:53;;;;;;;2.72;0.93;;;19.80;99.90;;;;;;5032601;28;20246;-92
2023/08/24 04:45:40;;;;;;;3.42;0.95;;;19.80;99.90;;;;;;5040573;28;21045;-95
2023/08/24 04:48:17;;;;;;;2.20;1.02;;;19.70;99.90;;;;;;5056554;28;20215;-95
2023/08/24 04:50:49;;;;;;;3.97;1.42;;;19.70;99.90;;;;;;5066927;28;20200;-93
2023/08/24 04:53:24;;;;;;;2.70;0.85;;;19.80;99.90;;;;;;5054755;28;20275;-96
2023/08/24 04:55:55;;;;;;;2.30;0.90;;;19.80;99.90;;;;;;5057640;28;20262;-89
2023/08/24 04:58:28;;;;;;;2.85;1.17;;;19.80;99.90;;;;;;5068969;28;20241;-94
2023/08/24 05:01:04;;;;;;;9.18;3.72;;;19.80;99.90;;;;;;5066929;28;20701;-95
2023/08/24 05:03:35;;;;;;;3.42;1.23;;;19.80;99.90;;;;;;5068615;28;20304;-91
2023/08/24 05:06:06;;;;;;;2.90;1.15;;;19.70;99.90;;;;;;5050700;28;20225;-91
2023/08/24 05:08:37;;;;;;;4.57;1.30;;;19.70;99.90;;;;;;5043856;28;20209;-92
2023/08/24 05:11:15;;;;;;;2.80;0.90;;;19.70;99.90;;;;;;5046521;28;20207;-91
2023/08/24 05:13:51;;;;;;;2.85;1.08;;;19.60;99.90;;;;;;5052830;28;20243;-93
2023/08/24 05:16:28;;;;;;;2.22;0.93;;;19.60;99.90;;;;;;5047657;28;20205;-92
2023/08/24 05:19:00;;;;;;;2.15;0.90;;;19.60;99.90;;;;;;5031357;28;20208;-93
2023/08/24 05:21:32;;;;;;;5.50;0.90;;;19.60;99.90;;;;;;5037870;28;20228;-91
2023/08/24 05:24:06;;;;;;;2.15;1.00;;;19.60;99.90;;;;;;5056152;28;20281;-94
2023/08/24 05:26:38;;;;;;;3.17;1.20;;;19.60;99.90;;;;;;5050418;28;20197;-96
2023/08/24 05:29:10;;;;;;;2.78;0.90;;;19.60;99.90;;;;;;5029614;28;20288;-95
2023/08/24 05:31:45;;;;;;;2.47;1.00;;;19.60;99.90;;;;;;5030040;28;20217;-89
2023/08/24 05:34:17;;;;;;;2.83;1.17;;;19.60;99.90;;;;;;5026907;28;20202;-92
2023/08/24 05:36:50;;;;;;;2.10;0.95;;;19.70;99.90;;;;;;5029023;28;20221;-93
2023/08/24 05:39:22;;;;;;;4.78;1.10;;;19.80;99.90;;;;;;5001594;28;20319;-93
2023/08/24 05:41:56;;;;;;;2.40;1.02;;;19.90;99.90;;;;;;5020508;28;20225;-90
2023/08/24 05:44:27;;;;;;;1.52;0.73;;;19.80;99.90;;;;;;5021770;28;20655;-91
2023/08/24 05:47:02;;;;;;;3.38;2.20;;;19.80;99.90;;;;;;5027825;28;20250;-94
2023/08/24 05:49:36;;;;;;;4.40;2.40;;;19.90;99.90;;;;;;5028368;28;20223;-91
2023/08/24 05:52:08;;;;;;;2.17;1.30;;;19.80;99.90;;;;;;5027742;28;20260;-91
2023/08/24 05:54:40;;;;;;;3.67;1.10;;;19.80;99.90;;;;;;5023965;28;20560;-92
2023/08/24 05:59:41;;;;;;;4.82;1.10;;;19.90;99.90;;;;;;5051282;28;20213;-89
2023/08/24 06:02:16;;;;;;;1.95;0.98;;;19.90;99.90;;;;;;5052900;28;20284;-88
2023/08/24 06:04:50;;;;;;;2.05;0.98;;;19.70;99.90;;;;;;5047290;28;20192;-88
2023/08/24 06:07:21;;;;;;;2.88;1.13;;;19.60;99.90;;;;;;5044746;28;20262;-88
2023/08/24 06:09:55;;;;;;;2.65;1.00;;;19.60;99.90;;;;;;5049588;28;20232;-90
2023/08/24 06:12:36;;;;;;;2.38;1.00;;;19.60;99.90;;;;;;5049647;28;20537;-89
2023/08/24 06:15:12;;;;;;;3.47;1.10;;;19.70;99.90;;;;;;5043199;28;20216;-89
2023/08/24 06:17:48;;;;;;;2.58;1.02;;;19.70;99.90;;;;;;5052057;28;20193;-90
2023/08/24 06:20:20;;;;;;;2.40;1.05;;;19.70;99.90;;;;;;5041104;28;20212;-87
2023/08/24 06:22:52;;;;;;;1.83;1.00;;;19.70;99.90;;;;;;5040966;28;20229;-89
2023/08/24 06:25:24;;;;;;;3.58;1.02;;;19.90;99.90;;;;;;5045946;28;20201;-89
2023/08/24 06:27:58;;;;;;;1.98;0.85;;;20.00;99.90;;;;;;5051669;28;20643;-89
2023/08/24 06:30:32;;;;;;;2.60;0.93;;;20.00;99.90;;;;;;5054873;28;20227;-85
2023/08/24 06:33:08;;;;;;;1.98;0.90;;;20.00;99.90;;;;;;5063781;28;20197;-87
2023/08/24 06:35:39;;;;;;;5.28;0.90;;;20.00;99.90;;;;;;5068924;28;20168;-87
2023/08/24 06:38:11;;;;;;;2.35;1.10;;;20.10;99.90;;;;;;5060499;28;20211;-86
2023/08/24 06:40:43;;;;;;;3.15;1.00;;;20.20;99.90;;;;;;5047762;28;20637;-86
2023/08/24 06:43:14;;;;;;;2.53;0.85;;;20.20;99.90;;;;;;5052156;28;20247;-87
2023/08/24 06:45:48;;;;;;;2.00;0.85;;;20.20;99.90;;;;;;5036673;28;20189;-88
2023/08/24 06:48:22;;;;;;;2.88;1.10;;;20.10;99.90;;;;;;5034281;28;20668;-86
2023/08/24 06:50:55;;;;;;;1.40;0.80;;;20.00;99.90;;;;;;5037316;28;20284;-86
2023/08/24 06:53:26;;;;;;;5.43;1.20;;;19.80;99.90;;;;;;5035321;28;20215;-86
2023/08/24 06:55:59;;;;;;;2.58;1.00;;;19.70;99.90;;;;;;5044687;28;20302;-86
2023/08/24 06:58:30;;;;;;;1.83;0.90;;;19.50;99.90;;;;;;5060827;28;20227;-87
2023/08/24 07:01:05;;;;;;;2.13;1.00;;;19.40;99.90;;;;;;5077286;28;20209;-86
2023/08/24 07:03:38;;;;;;;1.67;1.00;;;19.30;99.90;;;;;;5062013;28;20326;-87
2023/08/24 07:06:11;;;;;;;2.58;0.90;;;19.20;99.90;;;;;;5070946;28;20228;-86
2023/08/24 07:08:43;;;;;;;2.03;1.00;;;19.10;99.90;;;;;;5051024;28;20193;-87
2023/08/24 07:11:14;;;;;;;1.35;0.82;;;19.10;99.90;;;;;;5049798;28;20201;-86
2023/08/24 07:13:52;;;;;;;1.98;0.90;;;18.90;99.90;;;;;;5048837;28;20257;-87
2023/08/24 07:16:23;;;;;;;3.78;1.08;;;18.80;99.90;;;;;;5051387;28;20199;-84
2023/08/24 07:18:57;;;;;;;3.03;1.02;;;18.80;99.90;;;;;;5050590;28;20566;-85
2023/08/24 07:21:30;;;;;;;2.67;0.90;;;18.70;99.90;;;;;;5056898;28;20192;-87
2023/08/24 07:24:02;;;;;;;2.08;0.90;;;18.70;99.90;;;;;;5054631;28;20263;-85
2023/08/24 07:26:33;;;;;;;3.63;1.23;;;18.60;99.90;;;;;;5039642;28;20265;-87
2023/08/24 07:29:05;;;;;;;2.58;0.90;;;18.50;99.90;;;;;;5057777;28;20197;-87
2023/08/24 07:31:36;;;;;;;2.33;1.05;;;18.50;99.90;;;;;;5056494;28;20200;-86
2023/08/24 07:34:09;;;;;;;2.15;1.00;;;18.40;99.90;;;;;;5050435;28;20197;-87
2023/08/24 07:36:41;;;;;;;1.73;0.98;;;18.40;99.90;;;;;;5035197;28;20201;-83
2023/08/24 07:39:15;;;;;;;4.35;1.40;;;18.30;99.90;;;;;;5047431;28;20190;-87
2023/08/24 07:41:47;;;;;;;5.45;1.42;;;18.30;99.90;;;;;;5025732;28;20189;-84
2023/08/24 07:44:18;;;;;;;2.95;1.40;;;18.20;99.90;;;;;;5036706;28;20240;-85
2023/08/24 07:46:50;;;;;;;2.15;1.23;;;18.20;99.90;;;;;;5039239;28;20200;-85
2023/08/24 07:49:25;;;;;;;2.97;1.23;;;18.10;99.90;;;;;;5045007;28;20204;-86
2023/08/24 07:51:57;;;;;;;2.55;1.33;;;18.00;99.90;;;;;;5053147;28;20205;-83
2023/08/24 07:54:32;;;;;;;2.53;1.17;;;18.00;99.90;;;;;;5058446;28;20181;-89
2023/08/24 07:57:04;;;;;;;2.58;1.23;;;18.00;99.90;;;;;;5043366;28;20192;-86
2023/08/24 07:59:37;;;;;;;2.75;1.10;;;18.00;99.90;;;;;;5064869;28;20234;-86
2023/08/24 08:02:09;;;;;;;2.05;1.00;;;17.90;99.90;;;;;;5058290;28;20222;-85
2023/08/24 08:04:42;;;;;;;4.63;1.42;;;17.90;99.90;;;;;;5075134;28;20216;-86
2023/08/24 08:07:13;;;;;;;3.60;1.20;;;17.90;99.90;;;;;;5048497;28;20197;-87
2023/08/24 08:09:46;;;;;;;4.05;1.40;;;17.90;99.90;;;;;;5050902;28;20193;-86
2023/08/24 08:12:17;;;;;;;3.42;1.20;;;17.90;99.90;;;;;;5057877;28;20686;-86
2023/08/24 08:14:48;;;;;;;2.92;1.30;;;17.80;99.90;;;;;;5057696;28;20246;-87
2023/08/24 08:17:20;;;;;;;3.67;1.40;;;17.80;99.90;;;;;;5051021;28;20203;-87
2023/08/24 08:19:58;;;;;;;3.38;1.60;;;17.80;99.90;;;;;;5064235;28;20203;-89
2023/08/24 08:22:29;;;;;;;3.10;1.42;;;17.70;99.90;;;;;;5069386;28;20191;-88
2023/08/24 08:25:00;;;;;;;1.27;1.00;;;17.80;99.90;;;;;;5057462;28;20228;-87
2023/08/24 08:27:32;;;;;;;2.22;1.10;;;17.70;99.90;;;;;;5056189;28;20188;-87
2023/08/24 08:30:04;;;;;;;3.40;1.20;;;17.70;99.90;;;;;;5055902;28;20220;-86
2023/08/24 08:32:36;;;;;;;2.00;1.00;;;17.70;99.90;;;;;;5054413;28;20630;-85
2023/08/24 08:35:10;;;;;;;1.55;1.20;;;17.60;99.90;;;;;;5053831;28;20212;-89
2023/08/24 08:37:41;;;;;;;1.42;1.10;;;17.60;99.90;;;;;;5045582;28;20197;-88
2023/08/24 08:40:15;;;;;;;2.00;1.20;;;17.60;99.90;;;;;;5052235;28;20213;-88
2023/08/24 08:42:48;;;;;;;2.58;1.00;;;17.50;99.90;;;;;;5048338;28;20197;-89
2023/08/24 08:45:22;;;;;;;1.75;1.00;;;17.60;99.90;;;;;;5053343;28;20227;-91
2023/08/24 08:47:53;;;;;;;2.17;0.93;;;17.50;99.90;;;;;;5055959;28;20180;-92
2023/08/24 08:50:29;;;;;;;3.05;1.20;;;17.50;99.90;;;;;;5055938;28;20663;-88
2023/08/24 08:53:02;;;;;;;3.63;1.30;;;17.50;99.90;;;;;;5050832;28;20192;-86
2023/08/24 08:55:36;;;;;;;3.03;1.00;;;17.40;99.90;;;;;;5016568;28;20228;-85
2023/08/24 08:58:23;;;;;;;2.13;1.20;;;17.40;99.90;;;;;;5039680;28;20316;-87
2023/08/24 09:00:59;;;;;;;2.42;1.20;;;17.40;99.90;;;;;;5054541;28;20279;-89
2023/08/24 09:03:34;;;;;;;2.13;1.00;;;17.40;99.90;;;;;;5051714;28;20195;-89
2023/08/24 09:06:07;;;;;;;2.00;1.13;;;17.40;99.90;;;;;;5059242;28;20530;-86
2023/08/24 09:08:48;;;;;;;4.13;1.40;;;17.40;99.90;;;;;;5070396;28;20730;-85
2023/08/24 09:11:19;;;;;;;3.72;1.77;;;17.40;99.90;;;;;;5058073;28;20287;-88
2023/08/24 09:13:50;;;;;;;2.92;1.80;;;17.30;99.90;;;;;;5055325;28;20207;-87
2023/08/24 09:16:27;;;;;;;2.05;1.60;;;17.30;99.90;;;;;;5054483;28;20204;-85
2023/08/24 09:19:10;;;;;;;2.92;1.30;;;17.30;99.90;;;;;;5055639;28;20211;-87
2023/08/24 09:21:43;;;;;;;3.03;1.50;;;17.20;99.90;;;;;;5047787;28;20230;-87
2023/08/24 09:24:15;;;;;;;4.30;1.63;;;17.20;99.90;;;;;;5066724;28;20227;-87
2023/08/24 09:26:46;;;;;;;2.53;1.50;;;17.20;99.90;;;;;;5037205;28;20724;-88
2023/08/24 09:29:21;;;;;;;3.97;2.22;;;17.20;99.90;;;;;;5054802;28;20234;-90
2023/08/24 09:31:57;;;;;;;5.40;2.80;;;17.20;99.90;;;;;;5060606;28;20196;-90
2023/08/24 09:34:31;;;;;;;4.53;3.17;;;17.20;99.90;;;;;;5035820;28;20711;-89
2023/08/24 09:37:07;;;;;;;4.78;2.90;;;17.10;99.90;;;;;;5045525;28;20204;-92
2023/08/24 09:39:38;;;;;;;6.28;3.30;;;17.10;99.90;;;;;;5054338;28;20272;-91
2023/08/24 09:42:09;;;;;;;7.20;3.90;;;17.00;99.90;;;;;;5070898;28;20219;-89
2023/08/24 09:44:45;;;;;;;5.35;3.30;;;17.10;99.90;;;;;;5037218;28;20216;-88
2023/08/24 09:47:17;;;;;;;5.43;3.85;;;17.00;99.90;;;;;;5029811;28;20282;-90
2023/08/24 09:49:53;;;;;;;7.10;4.50;;;17.00;99.90;;;;;;5059715;28;20203;-89
2023/08/24 09:52:31;;;;;;;7.30;4.45;;;17.00;99.90;;;;;;5055011;28;20215;-88
2023/08/24 09:55:07;;;;;;;6.65;3.55;;;17.00;99.90;;;;;;5050738;28;20609;-89
2023/08/24 09:57:41;;;;;;;5.47;3.42;;;16.90;99.90;;;;;;5055291;28;20240;-88
2023/08/24 10:00:12;;;;;;;26.25;19.17;;;16.80;99.90;;;;;;5055130;28;20185;-90
2023/08/24 10:02:53;;;;;;;32.55;23.58;;;16.90;99.90;;;;;;5053540;28;20189;-87
2023/08/24 10:05:26;;;;;;;13.40;8.30;;;16.80;99.90;;;;;;5034434;28;20311;-88
2023/08/24 10:08:01;;;;;;;6.75;4.25;;;16.80;99.90;;;;;;5034646;28;20550;-87
2023/08/24 10:10:35;;;;;;;7.13;4.90;;;16.80;99.90;;;;;;5042086;28;20220;-86
2023/08/24 10:13:13;;;;;;;10.75;5.78;;;16.70;99.90;;;;;;5070528;28;20188;-90
2023/08/24 10:15:46;;;;;;;8.18;4.80;;;16.70;99.90;;;;;;5050353;28;20250;-83
2023/08/24 10:18:19;;;;;;;5.40;3.53;;;16.70;99.90;;;;;;5052748;28;20205;-88
2023/08/24 10:20:51;;;;;;;5.85;2.95;;;16.70;99.90;;;;;;5052156;28;20203;-87
2023/08/24 10:23:24;;;;;;;6.13;2.38;;;16.70;99.90;;;;;;5057826;28;20189;-87
2023/08/24 10:25:56;;;;;;;6.05;2.60;;;16.70;99.90;;;;;;5051128;28;20212;-88
2023/08/24 10:28:29;;;;;;;4.13;2.15;;;16.70;99.90;;;;;;5054422;28;20235;-87
2023/08/24 10:31:04;;;;;;;4.75;2.00;;;16.70;99.90;;;;;;5053494;28;20188;-86
2023/08/24 10:33:37;;;;;;;7.00;2.20;;;16.70;99.90;;;;;;5053423;28;20573;-86
2023/08/24 10:36:11;;;;;;;5.18;1.90;;;16.70;99.90;;;;;;5047242;28;20250;-86
2023/08/24 10:38:47;;;;;;;3.72;1.67;;;16.70;99.90;;;;;;5052751;28;20195;-88
2023/08/24 10:41:18;;;;;;;5.10;2.40;;;16.70;99.90;;;;;;5034188;28;20200;-87
2023/08/24 10:43:53;;;;;;;4.60;1.90;;;16.60;99.90;;;;;;5054137;28;20196;-88
2023/08/24 10:46:24;;;;;;;4.47;1.85;;;16.60;99.90;;;;;;5044986;28;20217;-89
2023/08/24 10:49:08;;;;;;;5.25;1.50;;;16.60;99.90;;;;;;5049445;28;20196;-87
2023/08/24 10:51:48;;;;;;;3.20;1.50;;;16.60;99.90;;;;;;5054037;28;20636;-87
2023/08/24 10:54:34;;;;;;;3.53;1.55;;;16.60;99.90;;;;;;5052806;28;20567;-85
2023/08/24 10:57:07;;;;;;;6.18;2.05;;;16.60;99.90;;;;;;5034467;28;20284;-87
2023/08/24 10:59:40;;;;;;;3.80;1.60;;;16.60;99.90;;;;;;5049817;28;20714;-87
2023/08/24 11:02:28;;;;;;;4.25;1.67;;;16.60;99.90;;;;;;5054592;28;20199;-87
2023/08/24 11:05:30;;;;;;;5.05;1.70;;;16.60;99.90;;;;;;5072658;28;20223;-86
2023/08/24 11:08:07;;;;;;;3.25;1.63;;;16.60;99.90;;;;;;5083450;28;20207;-87
2023/08/24 11:17:22;;;;;;;5.30;2.38;;;16.60;99.90;;;;;;5155249;23;20223;-88
2023/08/24 11:19:58;;;;;;;4.88;1.92;;;16.60;99.90;;;;;;5090010;28;20200;-87
2023/08/24 11:25:25;;;;;;;3.20;1.45;;;16.50;99.90;;;;;;5056875;28;20279;-87
2023/08/24 11:28:22;;;;;;;3.50;1.60;;;16.50;99.90;;;;;;5056537;28;20176;-90
2023/08/24 11:36:25;;;;;;;3.85;1.48;;;16.50;99.90;;;;;;5060223;28;20207;-85
2023/08/24 11:41:44;;;;;;;2.75;1.35;;;16.50;99.90;;;;;;5072843;28;20204;-89
2023/08/24 11:44:56;;;;;;;2.42;1.25;;;16.50;99.90;;;;;;5047004;28;20213;-89
2023/08/24 11:47:39;;;;;;;2.53;1.20;;;16.50;99.90;;;;;;5074541;28;20227;-88
2023/08/24 11:50:28;;;;;;;4.40;1.35;;;16.50;99.90;;;;;;5075114;28;20197;-89
2023/08/24 11:53:04;;;;;;;2.75;1.15;;;16.50;99.90;;;;;;5054659;28;20220;-85
2023/08/24 11:55:43;;;;;;;1.73;1.00;;;16.50;99.90;;;;;;5071471;28;20209;-84
2023/08/24 11:58:21;;;;;;;3.83;1.15;;;16.50;99.90;;;;;;5064193;28;20215;-86
2023/08/24 12:00:54;;;;;;;4.22;1.30;;;16.50;99.90;;;;;;5060948;28;20176;-87
2023/08/24 12:06:23;;;;;;;3.42;1.17;;;16.50;99.90;;;;;;5061491;28;20256;-88
2023/08/24 12:08:56;;;;;;;2.67;1.17;;;16.40;99.90;;;;;;5071769;28;20212;-87
2023/08/24 12:11:27;;;;;;;2.13;1.23;;;16.40;99.90;;;;;;5041231;28;20205;-87
2023/08/24 12:14:14;;;;;;;2.38;1.30;;;16.30;99.90;;;;;;5058152;28;20203;-89
2023/08/24 12:17:10;;;;;;;3.42;1.42;;;16.30;99.90;;;;;;5066811;28;20228;-87
2023/08/24 12:19:46;;;;;;;3.65;1.20;;;16.20;99.90;;;;;;5045772;28;20214;-86
2023/08/24 12:22:23;;;;;;;4.00;1.45;;;16.20;99.90;;;;;;5042008;28;20220;-87
2023/08/24 12:24:54;;;;;;;4.85;1.70;;;16.20;99.90;;;;;;5059121;28;20226;-86
2023/08/24 12:27:28;;;;;;;3.95;1.80;;;16.10;99.90;;;;;;5064030;28;20200;-86
2023/08/24 12:30:04;;;;;;;3.75;1.55;;;16.10;99.90;;;;;;5045799;28;20204;-85
2023/08/24 12:32:52;;;;;;;4.60;1.92;;;16.10;99.90;;;;;;5066739;28;20200;-87
2023/08/24 12:38:21;;;;;;;4.78;1.73;;;16.10;99.90;;;;;;5069801;28;20207;-87
2023/08/24 12:40:53;;;;;;;7.22;1.98;;;16.00;99.90;;;;;;5060913;28;20197;-86
2023/08/24 12:43:24;;;;;;;3.17;1.70;;;16.00;99.90;;;;;;5058280;28;20233;-86
2023/08/24 12:45:55;;;;;;;2.63;1.75;;;15.90;99.90;;;;;;5061412;28;20228;-86
2023/08/24 12:48:29;;;;;;;2.47;1.40;;;15.80;99.90;;;;;;5066545;28;20250;-86
2023/08/24 12:51:00;;;;;;;1.75;1.30;;;15.80;99.90;;;;;;5066266;28;20199;-87
2023/08/24 12:53:30;;;;;;;2.55;1.75;;;15.70;99.90;;;;;;5059879;28;20200;-87
2023/08/24 12:58:57;;;;;;;3.05;1.50;;;15.70;99.90;;;;;;5072469;28;20219;-90
2023/08/24 13:01:28;;;;;;;3.97;1.70;;;15.70;99.90;;;;;;5048633;28;20203;-88
2023/08/24 13:04:09;;;;;;;5.10;1.70;;;15.60;99.90;;;;;;5058819;28;20192;-88
2023/08/24 13:06:59;;;;;;;3.72;1.70;;;15.60;99.90;;;;;;5049001;28;20240;-89
2023/08/24 13:09:30;;;;;;;4.00;1.73;;;15.60;99.90;;;;;;5063163;28;20270;-88
2023/08/24 13:12:03;;;;;;;4.80;1.70;;;15.60;99.90;;;;;;5056751;28;20192;-87
2023/08/24 13:14:37;;;;;;;3.53;1.70;;;15.60;99.90;;;;;;5055986;28;20193;-86
2023/08/24 13:17:07;;;;;;;4.88;2.00;;;15.60;99.90;;;;;;5049603;28;20245;-87
2023/08/24 13:19:42;;;;;;;2.95;1.80;;;15.70;99.90;;;;;;5050481;28;20230;-87
2023/08/24 13:22:13;;;;;;;3.70;1.98;;;15.60;99.90;;;;;;5073605;28;20272;-88
2023/08/24 13:24:44;;;;;;;3.17;1.92;;;15.60;99.90;;;;;;5057852;28;20640;-88
2023/08/24 13:27:16;;;;;;;5.82;2.47;;;15.50;99.90;;;;;;5060645;28;20208;-88
2023/08/24 13:29:47;;;;;;;3.35;1.98;;;15.60;99.90;;;;;;5053317;28;20399;-87
2023/08/24 13:32:18;;;;;;;6.28;2.10;;;15.50;99.90;;;;;;5051586;28;20537;-87
2023/08/24 13:34:54;;;;;;;3.08;1.90;;;15.50;99.90;;;;;;5052717;28;20257;-88
2023/08/24 13:37:27;;;;;;;5.20;2.38;;;15.50;99.90;;;;;;5049534;28;20287;-89
2023/08/24 13:39:58;;;;;;;4.85;2.00;;;15.50;99.90;;;;;;5047142;28;20185;-88
2023/08/24 13:42:29;;;;;;;2.63;1.90;;;15.50;99.90;;;;;;5075801;28;20211;-87
2023/08/24 13:45:01;;;;;;;4.35;1.95;;;15.60;99.90;;;;;;5071646;28;20216;-88
2023/08/24 13:47:32;;;;;;;3.60;2.10;;;15.60;99.90;;;;;;5063568;28;20223;-87
2023/08/24 13:50:07;;;;;;;5.35;2.42;;;15.60;99.90;;;;;;5056561;28;20195;-88
2023/08/24 13:52:39;;;;;;;4.53;2.28;;;15.60;99.90;;;;;;5038107;28;20195;-87
2023/08/24 13:55:14;;;;;;;3.95;2.10;;;15.60;99.90;;;;;;5053657;28;20283;-87